Time;durP1;ratioP1;P1;durP2;ratioP2;P2;SDS_P1;SDS_P2;PMS_P1;PMS_P2;Temp;Humidity;BMP_temperature;BMP_pressure;BME280_temperature;BME280_humidity;BME280_pressure;Samples;Min_cycle;Max_cycle;Signal;HPM_P1;HPM_P2
2023/01/19 06:00:42;;;;;;;13.00;11.70;;;-0.80;97.20;;;;;;1720976;28;20761;-66
2023/01/19 06:01:34;;;;;;;14.20;12.23;;;-0.80;97.20;;;;;;1720903;28;20208;-66
2023/01/19 06:02:27;;;;;;;12.48;11.27;;;-0.90;97.20;;;;;;1720871;28;20299;-66
2023/01/19 06:03:18;;;;;;;14.32;12.82;;;-0.90;97.20;;;;;;1721028;28;20690;-65
2023/01/19 06:04:09;;;;;;;14.30;12.80;;;-0.90;97.20;;;;;;1720890;28;20725;-66
2023/01/19 06:05:01;;;;;;;14.82;13.32;;;-0.90;97.20;;;;;;1720894;28;20216;-66
2023/01/19 06:05:52;;;;;;;12.95;11.75;;;-0.90;97.20;;;;;;1718369;28;20211;-67
2023/01/19 06:06:43;;;;;;;12.98;11.70;;;-0.90;97.20;;;;;;1720629;28;20697;-67
2023/01/19 06:07:35;;;;;;;13.55;12.15;;;-0.90;97.20;;;;;;1720675;28;20260;-66
2023/01/19 06:08:26;;;;;;;14.70;13.27;;;-0.90;97.20;;;;;;1720979;28;20205;-65
2023/01/19 06:09:18;;;;;;;12.85;11.55;;;-0.90;97.20;;;;;;1720806;28;20284;-66
2023/01/19 06:10:10;;;;;;;14.13;12.10;;;-0.90;97.20;;;;;;1720855;28;20678;-66
2023/01/19 06:11:02;;;;;;;12.88;10.90;;;-0.90;97.20;;;;;;1720910;28;20205;-66
2023/01/19 06:11:53;;;;;;;13.95;12.55;;;-0.90;97.20;;;;;;1720790;28;20208;-66
2023/01/19 06:12:44;;;;;;;12.70;11.40;;;-0.90;97.20;;;;;;1720935;28;20204;-66
2023/01/19 06:13:35;;;;;;;13.38;11.60;;;-0.90;97.20;;;;;;1720784;28;20209;-66
2023/01/19 06:14:27;;;;;;;12.47;11.20;;;-0.90;97.20;;;;;;1720841;28;20212;-66
2023/01/19 06:15:18;;;;;;;13.15;11.82;;;-0.90;97.20;;;;;;1720702;28;20205;-66
2023/01/19 06:16:11;;;;;;;12.90;11.60;;;-0.90;97.20;;;;;;1720145;28;20678;-66
2023/01/19 06:17:02;;;;;;;13.57;12.27;;;-0.90;97.20;;;;;;1720306;28;20359;-66
2023/01/19 06:17:54;;;;;;;11.90;10.70;;;-0.90;97.20;;;;;;1720648;28;20292;-65
2023/01/19 06:18:44;;;;;;;12.27;11.02;;;-0.90;97.20;;;;;;1720760;28;20205;-65
2023/01/19 06:19:36;;;;;;;14.00;11.37;;;-0.90;97.20;;;;;;1720815;28;20193;-66
2023/01/19 06:20:27;;;;;;;12.80;11.63;;;-0.90;97.20;;;;;;1720683;28;20201;-66
2023/01/19 06:21:18;;;;;;;12.13;10.90;;;-0.90;97.20;;;;;;1720824;28;20197;-66
2023/01/19 06:22:09;;;;;;;12.45;11.15;;;-0.90;97.20;;;;;;1720852;28;20235;-66
2023/01/19 06:23:01;;;;;;;11.83;10.73;;;-0.90;97.20;;;;;;1720802;28;20205;-66
2023/01/19 06:23:52;;;;;;;12.23;10.95;;;-0.90;97.20;;;;;;1720702;28;20228;-66
2023/01/19 06:24:43;;;;;;;12.20;11.00;;;-0.90;97.20;;;;;;1720850;28;20201;-66
2023/01/19 06:25:34;;;;;;;11.90;10.73;;;-0.90;97.20;;;;;;1720180;28;20567;-66
2023/01/19 06:26:26;;;;;;;13.13;11.73;;;-0.90;97.20;;;;;;1720753;28;20568;-66
2023/01/19 06:27:16;;;;;;;12.77;11.48;;;-0.90;97.20;;;;;;1720528;28;20201;-66
2023/01/19 06:28:08;;;;;;;11.83;10.63;;;-0.90;97.20;;;;;;1720709;28;20203;-66
2023/01/19 06:28:59;;;;;;;12.20;11.10;;;-0.80;97.20;;;;;;1720372;28;20208;-65
2023/01/19 06:29:50;;;;;;;13.30;11.87;;;-0.80;97.20;;;;;;1720483;28;20208;-67
2023/01/19 06:30:41;;;;;;;13.75;11.75;;;-0.80;97.20;;;;;;1720254;28;20714;-66
2023/01/19 06:31:34;;;;;;;12.00;10.80;;;-0.80;97.20;;;;;;1720822;28;20612;-66
2023/01/19 06:32:25;;;;;;;12.52;10.95;;;-0.80;97.20;;;;;;1720511;28;20576;-66
2023/01/19 06:33:17;;;;;;;12.07;10.87;;;-0.80;97.20;;;;;;1720113;28;20197;-66
2023/01/19 06:34:09;;;;;;;11.75;10.65;;;-0.80;97.20;;;;;;1720680;28;20213;-66
2023/01/19 06:35:01;;;;;;;13.68;11.00;;;-0.90;97.20;;;;;;1720769;28;20205;-66
2023/01/19 06:35:51;;;;;;;12.50;11.20;;;-0.90;97.20;;;;;;1720094;28;20212;-67
2023/01/19 06:36:43;;;;;;;15.40;12.50;;;-0.90;97.20;;;;;;1720435;28;20203;-66
2023/01/19 06:37:34;;;;;;;15.00;13.40;;;-0.90;97.20;;;;;;1720495;28;20266;-65
2023/01/19 06:38:26;;;;;;;14.47;12.17;;;-0.90;97.20;;;;;;1720687;28;20287;-65
2023/01/19 06:39:16;;;;;;;15.57;13.55;;;-0.90;97.20;;;;;;1720611;28;20528;-66
2023/01/19 06:40:10;;;;;;;12.07;10.97;;;-0.90;97.20;;;;;;1720764;28;20292;-66
2023/01/19 06:41:02;;;;;;;11.85;10.55;;;-0.90;97.20;;;;;;1720752;28;20213;-65
2023/01/19 06:41:53;;;;;;;13.60;12.18;;;-0.90;97.20;;;;;;1720602;28;20212;-66
2023/01/19 06:42:44;;;;;;;13.60;11.70;;;-0.90;97.20;;;;;;1716257;28;20652;-66
2023/01/19 06:43:36;;;;;;;12.50;11.27;;;-0.90;97.20;;;;;;1720673;28;20600;-66
2023/01/19 06:44:26;;;;;;;12.90;11.32;;;-0.90;97.20;;;;;;1720669;28;20201;-67
2023/01/19 06:45:18;;;;;;;12.47;11.17;;;-0.90;97.20;;;;;;1720579;28;20205;-67
2023/01/19 06:46:09;;;;;;;12.70;10.98;;;-0.90;97.20;;;;;;1720126;28;20475;-67
2023/01/19 06:47:02;;;;;;;12.63;11.43;;;-0.90;97.20;;;;;;1720172;28;20203;-66
2023/01/19 06:47:53;;;;;;;12.77;11.48;;;-0.80;97.20;;;;;;1720518;28;20209;-67
2023/01/19 06:48:44;;;;;;;12.87;11.57;;;-0.80;97.20;;;;;;1720662;28;20240;-67
2023/01/19 06:49:35;;;;;;;13.10;11.65;;;-0.80;97.20;;;;;;1720524;28;20201;-67
2023/01/19 06:50:27;;;;;;;11.67;10.57;;;-0.70;97.20;;;;;;1720693;28;20201;-66
2023/01/19 06:51:18;;;;;;;12.43;11.15;;;-0.70;97.20;;;;;;1720591;28;20584;-67
2023/01/19 06:52:10;;;;;;;12.50;11.20;;;-0.60;97.20;;;;;;1720688;28;20223;-66
2023/01/19 06:53:01;;;;;;;11.05;9.95;;;-0.60;97.20;;;;;;1720606;28;20201;-67
2023/01/19 06:53:52;;;;;;;11.60;10.40;;;-0.60;97.20;;;;;;1720633;28;20208;-65
2023/01/19 06:54:43;;;;;;;12.65;11.35;;;-0.60;97.20;;;;;;1720634;28;20205;-66
2023/01/19 06:55:35;;;;;;;12.17;10.90;;;-0.60;97.20;;;;;;1719969;28;20662;-66
2023/01/19 06:56:26;;;;;;;12.45;11.13;;;-0.60;97.20;;;;;;1720706;28;20232;-66
2023/01/19 06:57:18;;;;;;;12.60;10.67;;;-0.60;97.20;;;;;;1720180;28;20200;-67
2023/01/19 06:58:09;;;;;;;11.75;10.65;;;-0.50;97.20;;;;;;1720519;28;20538;-67
2023/01/19 06:59:01;;;;;;;13.30;11.93;;;-0.60;97.20;;;;;;1720002;28;20247;-67
2023/01/19 06:59:52;;;;;;;11.60;10.05;;;-0.60;97.20;;;;;;1720609;28;20205;-67
2023/01/19 07:00:43;;;;;;;10.77;9.70;;;-0.60;97.20;;;;;;1720573;28;20296;-67
2023/01/19 07:01:34;;;;;;;12.00;10.77;;;-0.60;97.20;;;;;;1720327;28;20236;-67
2023/01/19 07:02:27;;;;;;;11.65;10.55;;;-0.60;97.20;;;;;;1716038;28;20224;-67
2023/01/19 07:03:20;;;;;;;12.48;10.38;;;-0.50;97.20;;;;;;1720076;28;20208;-66
2023/01/19 07:04:13;;;;;;;10.77;9.75;;;-0.60;97.20;;;;;;1720552;28;20229;-66
2023/01/19 07:05:05;;;;;;;12.07;10.32;;;-0.60;97.20;;;;;;1720599;28;20205;-66
2023/01/19 07:05:59;;;;;;;11.27;10.07;;;-0.60;97.20;;;;;;1719920;28;20209;-66
2023/01/19 07:06:50;;;;;;;11.15;10.05;;;-0.60;97.20;;;;;;1720388;28;20205;-68
2023/01/19 07:07:43;;;;;;;11.10;10.00;;;-0.60;97.20;;;;;;1720057;28;20675;-67
2023/01/19 07:08:36;;;;;;;11.82;10.63;;;-0.60;97.20;;;;;;1720501;28;20539;-65
2023/01/19 07:09:28;;;;;;;10.98;9.93;;;-0.60;97.20;;;;;;1720548;28;20208;-66
2023/01/19 07:10:19;;;;;;;10.73;9.52;;;-0.60;97.20;;;;;;1720222;28;20197;-66
2023/01/19 07:11:12;;;;;;;9.48;8.48;;;-0.60;97.20;;;;;;1720464;28;20259;-66
2023/01/19 07:12:03;;;;;;;10.45;9.45;;;-0.60;97.20;;;;;;1720492;28;20208;-66
2023/01/19 07:12:57;;;;;;;12.13;10.10;;;-0.60;97.20;;;;;;1719980;28;20231;-66
2023/01/19 07:13:50;;;;;;;10.43;9.35;;;-0.60;97.20;;;;;;1720511;28;20201;-66
2023/01/19 07:14:42;;;;;;;11.02;9.93;;;-0.60;97.20;;;;;;1720609;28;20208;-66
2023/01/19 07:15:32;;;;;;;10.00;9.02;;;-0.60;97.20;;;;;;1720372;28;20576;-64
2023/01/19 07:16:24;;;;;;;9.73;8.50;;;-0.60;97.20;;;;;;1720519;28;20223;-66
2023/01/19 07:17:15;;;;;;;10.45;9.45;;;-0.60;97.20;;;;;;1718220;28;20205;-67
2023/01/19 07:18:08;;;;;;;10.10;9.10;;;-0.50;97.20;;;;;;1720335;28;20204;-67
2023/01/19 07:18:59;;;;;;;10.48;9.25;;;-0.50;97.20;;;;;;1720465;28;20453;-67
2023/01/19 07:19:51;;;;;;;10.47;9.40;;;-0.50;97.20;;;;;;1720594;28;20211;-67
2023/01/19 07:20:43;;;;;;;10.48;9.43;;;-0.50;97.20;;;;;;1720083;28;20228;-67
2023/01/19 07:21:34;;;;;;;9.18;8.35;;;-0.40;97.20;;;;;;1719484;28;20197;-67
2023/01/19 07:22:25;;;;;;;10.40;9.40;;;-0.40;97.20;;;;;;1719644;28;20201;-66
2023/01/19 07:23:17;;;;;;;10.40;9.00;;;-0.40;97.20;;;;;;1719791;28;20197;-67
2023/01/19 07:24:08;;;;;;;9.77;8.77;;;-0.30;97.20;;;;;;1719790;28;20201;-67
2023/01/19 07:25:00;;;;;;;9.90;8.90;;;-0.30;97.20;;;;;;1719827;28;20197;-66
2023/01/19 07:25:51;;;;;;;11.70;10.25;;;-0.30;97.20;;;;;;1719253;28;20213;-66
2023/01/19 07:26:42;;;;;;;10.20;9.20;;;-0.30;97.20;;;;;;1719904;28;20263;-67
2023/01/19 07:27:33;;;;;;;9.68;8.73;;;-0.30;97.20;;;;;;1720329;28;20211;-66
2023/01/19 07:28:25;;;;;;;9.97;8.90;;;-0.30;97.20;;;;;;1720500;28;20197;-67
2023/01/19 07:29:16;;;;;;;10.80;9.80;;;-0.30;97.20;;;;;;1721568;28;20297;-66
2023/01/19 07:30:08;;;;;;;10.33;9.33;;;-0.30;97.20;;;;;;1721921;28;20284;-67
2023/01/19 07:30:59;;;;;;;10.77;8.75;;;-0.30;97.20;;;;;;1721836;28;20233;-66
2023/01/19 07:31:53;;;;;;;11.33;9.47;;;-0.30;97.20;;;;;;1721977;28;20300;-67
2023/01/19 07:32:44;;;;;;;9.98;8.98;;;-0.30;97.20;;;;;;1721942;28;20239;-67
2023/01/19 07:33:37;;;;;;;10.03;8.90;;;-0.30;97.20;;;;;;1721664;28;20236;-66
2023/01/19 07:34:28;;;;;;;9.85;8.85;;;-0.40;97.20;;;;;;1721581;28;20683;-67
2023/01/19 07:35:20;;;;;;;10.43;9.32;;;-0.40;97.20;;;;;;1721686;28;20659;-65
2023/01/19 07:36:12;;;;;;;10.52;9.45;;;-0.40;97.20;;;;;;1721278;28;20247;-67
2023/01/19 07:37:04;;;;;;;9.50;8.60;;;-0.40;97.20;;;;;;1721566;28;20201;-66
2023/01/19 07:37:54;;;;;;;10.82;8.70;;;-0.40;97.20;;;;;;1721516;28;20255;-67
2023/01/19 07:38:46;;;;;;;9.43;8.50;;;-0.40;97.20;;;;;;1721468;28;20279;-67
2023/01/19 07:39:37;;;;;;;9.68;8.70;;;-0.50;97.20;;;;;;1721797;28;20205;-65
2023/01/19 07:40:28;;;;;;;10.47;9.40;;;-0.50;97.20;;;;;;1722095;28;20280;-67
2023/01/19 07:41:19;;;;;;;8.63;7.72;;;-0.50;97.20;;;;;;1721813;28;20209;-66
2023/01/19 07:42:11;;;;;;;9.00;8.13;;;-0.60;97.20;;;;;;1721825;28;20295;-66
2023/01/19 07:43:02;;;;;;;9.27;8.27;;;-0.60;97.20;;;;;;1721855;28;20205;-67
2023/01/19 07:43:53;;;;;;;11.93;9.27;;;-0.60;97.20;;;;;;1721715;28;20201;-66
2023/01/19 07:44:44;;;;;;;13.35;11.02;;;-0.60;97.20;;;;;;1721867;28;20216;-66
2023/01/19 07:45:36;;;;;;;11.40;9.57;;;-0.60;97.20;;;;;;1721218;28;20201;-66
2023/01/19 07:46:27;;;;;;;11.38;9.98;;;-0.70;97.20;;;;;;1721837;28;20212;-67
2023/01/19 07:47:18;;;;;;;10.17;9.07;;;-0.70;97.20;;;;;;1721566;28;20701;-66
2023/01/19 07:48:09;;;;;;;10.98;9.52;;;-0.70;97.20;;;;;;1721660;28;20201;-65
2023/01/19 07:49:02;;;;;;;10.30;9.27;;;-0.70;97.20;;;;;;1721890;28;20205;-67
2023/01/19 07:49:53;;;;;;;11.05;9.90;;;-0.70;97.20;;;;;;1721666;28;20220;-67
2023/01/19 07:50:44;;;;;;;11.73;10.20;;;-0.70;97.20;;;;;;1721762;28;20699;-66
2023/01/19 07:51:35;;;;;;;9.40;8.50;;;-0.70;97.20;;;;;;1721638;28;20216;-65
2023/01/19 07:52:27;;;;;;;10.33;9.27;;;-0.80;97.20;;;;;;1721707;28;20204;-65
2023/01/19 07:53:18;;;;;;;10.93;9.82;;;-0.80;97.20;;;;;;1721803;28;20209;-66
2023/01/19 07:54:09;;;;;;;11.63;10.20;;;-0.80;97.20;;;;;;1721357;28;20204;-66
2023/01/19 07:55:00;;;;;;;10.57;9.57;;;-0.70;97.20;;;;;;1721636;28;20201;-66
2023/01/19 07:55:55;;;;;;;10.27;9.27;;;-0.70;97.20;;;;;;1721263;28;20208;-67
2023/01/19 07:56:46;;;;;;;10.90;9.90;;;-0.60;97.20;;;;;;1721479;28;20209;-66
2023/01/19 07:57:37;;;;;;;10.57;9.30;;;-0.60;97.20;;;;;;1721169;28;20205;-66
2023/01/19 07:58:28;;;;;;;9.30;7.82;;;-0.50;97.20;;;;;;1721538;28;20205;-67
2023/01/19 07:59:20;;;;;;;9.33;8.23;;;-0.40;97.20;;;;;;1717439;28;20231;-64
2023/01/19 08:00:13;;;;;;;10.68;9.55;;;-0.30;97.20;;;;;;1715954;28;20206;-67
2023/01/19 08:01:06;;;;;;;10.23;9.23;;;-0.20;97.20;;;;;;1721323;28;20206;-66
2023/01/19 08:01:58;;;;;;;10.68;9.60;;;-0.10;97.20;;;;;;1715582;28;20197;-66
2023/01/19 08:02:50;;;;;;;9.70;8.68;;;0.00;97.20;;;;;;1719188;28;20583;-67
2023/01/19 08:03:41;;;;;;;10.48;9.13;;;0.10;97.20;;;;;;1721008;28;20201;-67
2023/01/19 08:04:34;;;;;;;12.13;9.00;;;0.20;97.20;;;;;;1720652;28;20201;-66
2023/01/19 08:05:25;;;;;;;9.27;8.27;;;0.20;97.20;;;;;;1721115;28;20201;-67
2023/01/19 08:06:21;;;;;;;9.70;7.90;;;0.30;97.20;;;;;;1720218;28;20205;-67
2023/01/19 08:07:11;;;;;;;9.93;8.90;;;0.30;97.20;;;;;;1721426;28;20736;-65
2023/01/19 08:08:04;;;;;;;9.77;8.77;;;0.40;97.20;;;;;;1721227;28;20616;-67
2023/01/19 08:08:55;;;;;;;8.75;7.90;;;0.50;97.20;;;;;;1721583;28;20201;-66
2023/01/19 08:09:46;;;;;;;9.67;8.60;;;0.50;97.20;;;;;;1721407;28;20260;-67
2023/01/19 08:10:37;;;;;;;8.80;7.90;;;0.50;97.20;;;;;;1720517;28;20217;-67
2023/01/19 08:11:29;;;;;;;8.43;7.57;;;0.50;97.20;;;;;;1721282;28;20205;-66
2023/01/19 08:12:20;;;;;;;9.32;7.80;;;0.60;97.20;;;;;;1721476;28;20452;-67
2023/01/19 08:13:12;;;;;;;8.75;7.85;;;0.60;97.20;;;;;;1721497;28;20208;-67
2023/01/19 08:14:02;;;;;;;8.30;7.18;;;0.70;97.20;;;;;;1721609;28;20205;-67
2023/01/19 08:14:54;;;;;;;7.90;7.10;;;0.70;97.20;;;;;;1721390;28;20289;-67
2023/01/19 08:15:48;;;;;;;8.07;7.38;;;0.70;97.20;;;;;;1721179;28;20204;-67
2023/01/19 08:16:40;;;;;;;9.95;8.32;;;0.80;97.20;;;;;;1721307;28;20197;-66
2023/01/19 08:17:31;;;;;;;9.95;7.95;;;0.80;97.20;;;;;;1721418;28;20205;-66
2023/01/19 08:18:22;;;;;;;9.98;8.90;;;0.90;97.20;;;;;;1721615;28;20224;-66
2023/01/19 08:19:14;;;;;;;8.47;7.67;;;0.90;97.20;;;;;;1721590;28;20209;-66
2023/01/19 08:20:10;;;;;;;8.77;7.88;;;0.90;97.20;;;;;;1721422;28;20197;-67
2023/01/19 08:21:01;;;;;;;9.18;8.32;;;0.90;97.20;;;;;;1721738;28;20689;-66
2023/01/19 08:21:52;;;;;;;8.40;7.60;;;0.90;97.20;;;;;;1721402;28;20232;-66
2023/01/19 08:22:47;;;;;;;9.48;8.10;;;0.90;97.20;;;;;;1721624;28;20196;-67
2023/01/19 08:23:38;;;;;;;9.30;8.10;;;0.90;97.20;;;;;;1721508;28;20284;-67
2023/01/19 08:24:30;;;;;;;8.80;7.90;;;0.80;97.20;;;;;;1721612;28;20296;-66
2023/01/19 08:25:21;;;;;;;9.68;8.65;;;0.80;97.20;;;;;;1721421;28;20193;-66
2023/01/19 08:26:20;;;;;;;8.73;7.90;;;0.80;97.20;;;;;;1720718;28;20204;-67
2023/01/19 08:27:11;;;;;;;8.35;7.50;;;0.70;97.20;;;;;;1714501;28;20536;-65
2023/01/19 08:28:04;;;;;;;8.43;7.60;;;0.80;97.20;;;;;;1714620;28;20205;-67
2023/01/19 08:28:59;;;;;;;9.20;7.82;;;0.70;97.20;;;;;;1714799;28;20210;-67
2023/01/19 08:29:49;;;;;;;8.82;8.00;;;0.80;97.20;;;;;;1716472;28;20213;-67
2023/01/19 08:30:43;;;;;;;8.90;7.67;;;0.70;97.20;;;;;;1721421;28;20227;-66
2023/01/19 08:31:33;;;;;;;8.60;7.70;;;0.70;97.20;;;;;;1721287;28;20259;-67
2023/01/19 08:32:26;;;;;;;8.30;7.50;;;0.70;97.20;;;;;;1721600;28;20255;-67
2023/01/19 08:33:16;;;;;;;8.82;7.93;;;0.70;97.20;;;;;;1721550;28;20687;-65
2023/01/19 08:34:08;;;;;;;9.10;8.20;;;0.70;97.20;;;;;;1721428;28;20569;-66
2023/01/19 08:34:59;;;;;;;9.07;8.18;;;0.60;97.20;;;;;;1721359;28;20209;-66
2023/01/19 08:35:53;;;;;;;8.63;7.70;;;0.60;97.20;;;;;;1720862;28;20201;-67
2023/01/19 08:36:44;;;;;;;8.00;7.07;;;0.60;97.20;;;;;;1721292;28;20572;-67
2023/01/19 08:37:35;;;;;;;8.33;7.60;;;0.60;97.20;;;;;;1721129;28;20620;-67
2023/01/19 08:38:26;;;;;;;8.15;7.45;;;0.60;97.20;;;;;;1721552;28;20663;-67
2023/01/19 08:39:18;;;;;;;8.83;8.03;;;0.70;97.20;;;;;;1721100;28;20648;-66
2023/01/19 08:40:10;;;;;;;10.40;8.32;;;0.70;97.20;;;;;;1720853;28;20198;-65
2023/01/19 08:41:02;;;;;;;8.68;7.80;;;0.80;97.20;;;;;;1721361;28;20252;-66
2023/01/19 08:41:53;;;;;;;9.27;7.75;;;0.80;97.20;;;;;;1721250;28;20216;-66
2023/01/19 08:42:45;;;;;;;8.68;7.75;;;0.90;97.20;;;;;;1721363;28;20256;-67
2023/01/19 08:43:36;;;;;;;8.35;7.55;;;0.90;97.20;;;;;;1721356;28;20209;-67
2023/01/19 08:44:28;;;;;;;8.88;8.00;;;1.00;97.20;;;;;;1721370;28;20288;-66
2023/01/19 08:45:19;;;;;;;9.88;8.85;;;1.00;97.20;;;;;;1721109;28;20633;-66
2023/01/19 08:46:15;;;;;;;9.83;8.40;;;1.10;97.20;;;;;;1720732;28;20893;-67
2023/01/19 08:47:07;;;;;;;8.80;7.93;;;1.10;97.20;;;;;;1720974;28;20464;-66
2023/01/19 08:47:59;;;;;;;9.55;7.85;;;1.20;97.20;;;;;;1721196;28;20568;-67
2023/01/19 08:48:50;;;;;;;10.13;8.10;;;1.30;97.20;;;;;;1721397;28;20579;-67
2023/01/19 08:49:41;;;;;;;9.53;8.17;;;1.40;97.20;;;;;;1721233;28;20264;-66
2023/01/19 08:50:33;;;;;;;9.55;8.35;;;1.50;97.20;;;;;;1721191;28;20224;-67
2023/01/19 08:51:26;;;;;;;9.13;7.90;;;1.60;97.20;;;;;;1721401;28;20200;-67
2023/01/19 08:52:17;;;;;;;9.70;8.70;;;1.70;97.20;;;;;;1721171;28;20216;-67
2023/01/19 08:53:10;;;;;;;9.53;8.37;;;1.80;97.20;;;;;;1721388;28;20205;-66
2023/01/19 08:54:01;;;;;;;8.93;8.13;;;2.10;97.20;;;;;;1720739;28;20205;-67
2023/01/19 08:54:53;;;;;;;9.33;8.50;;;2.90;97.20;;;;;;1720626;28;20305;-66
2023/01/19 08:55:43;;;;;;;10.50;9.50;;;3.80;97.20;;;;;;1720621;28;20610;-65
2023/01/19 08:56:35;;;;;;;9.50;8.60;;;4.90;97.20;;;;;;1721162;28;20634;-66
2023/01/19 08:57:26;;;;;;;8.98;7.32;;;6.10;97.20;;;;;;1720849;28;20946;-66
2023/01/19 08:58:18;;;;;;;8.90;8.00;;;7.40;97.20;;;;;;1721293;28;20542;-67
2023/01/19 08:59:09;;;;;;;9.48;8.57;;;8.70;97.20;;;;;;1720804;28;20483;-66
2023/01/19 09:00:00;;;;;;;8.00;7.20;;;9.90;97.20;;;;;;1721206;28;20215;-66
2023/01/19 09:00:51;;;;;;;8.60;7.63;;;11.20;97.20;;;;;;1721082;28;20476;-67
2023/01/19 09:01:43;;;;;;;7.83;7.13;;;12.30;97.20;;;;;;1721354;28;20208;-66
2023/01/19 09:02:34;;;;;;;8.55;7.75;;;13.30;97.20;;;;;;1721208;28;20463;-66
2023/01/19 09:03:25;;;;;;;7.83;7.03;;;14.10;97.20;;;;;;1721414;28;20276;-67
2023/01/19 09:04:17;;;;;;;8.13;7.32;;;14.50;97.20;;;;;;1721160;28;20201;-67
2023/01/19 09:05:08;;;;;;;10.43;7.10;;;14.80;97.20;;;;;;1721250;28;20205;-66
2023/01/19 09:06:00;;;;;;;9.55;7.53;;;14.90;97.20;;;;;;1720686;28;20204;-67
2023/01/19 09:06:52;;;;;;;7.80;6.80;;;14.70;97.20;;;;;;1720992;28;20355;-67
2023/01/19 09:07:46;;;;;;;8.00;6.90;;;14.40;97.20;;;;;;1720953;28;20201;-67
2023/01/19 09:08:37;;;;;;;7.93;7.13;;;13.90;97.20;;;;;;1721193;28;20210;-66
2023/01/19 09:09:29;;;;;;;7.63;6.72;;;13.10;97.20;;;;;;1721217;28;20194;-66
2023/01/19 09:10:20;;;;;;;7.78;6.97;;;12.70;97.20;;;;;;1721029;28;20197;-67
2023/01/19 09:11:13;;;;;;;8.13;7.00;;;12.50;97.20;;;;;;1721219;28;20201;-66
2023/01/19 09:12:04;;;;;;;7.70;6.90;;;12.60;97.20;;;;;;1721328;28;20220;-66
2023/01/19 09:12:56;;;;;;;8.63;7.27;;;12.80;97.20;;;;;;1721103;28;20284;-66
2023/01/19 09:13:46;;;;;;;11.18;7.10;;;13.10;97.20;;;;;;1721236;28;20209;-67
2023/01/19 09:14:38;;;;;;;7.77;6.97;;;13.20;97.20;;;;;;1721295;28;20204;-67
2023/01/19 09:15:29;;;;;;;7.63;6.60;;;13.10;97.20;;;;;;1720287;28;20208;-66
2023/01/19 09:16:21;;;;;;;7.13;6.43;;;13.00;97.20;;;;;;1714054;28;20197;-67
2023/01/19 09:17:13;;;;;;;7.97;7.18;;;12.90;97.20;;;;;;1717911;28;20809;-67
2023/01/19 09:18:06;;;;;;;7.93;6.65;;;13.00;97.20;;;;;;1720971;28;20255;-67
2023/01/19 09:18:57;;;;;;;6.80;6.20;;;13.20;97.20;;;;;;1721140;28;20255;-67
2023/01/19 09:19:49;;;;;;;6.53;5.83;;;13.60;97.20;;;;;;1721212;28;20267;-67
2023/01/19 09:20:41;;;;;;;6.90;5.70;;;14.10;97.20;;;;;;1721251;28;20721;-68
2023/01/19 09:21:33;;;;;;;6.78;6.15;;;14.80;97.20;;;;;;1721078;28;20224;-67
2023/01/19 09:22:25;;;;;;;7.32;6.65;;;15.70;97.20;;;;;;1721284;28;20208;-67
2023/01/19 09:23:18;;;;;;;6.60;6.10;;;16.90;97.20;;;;;;1721049;28;20201;-68
2023/01/19 09:24:09;;;;;;;7.50;6.80;;;17.80;97.20;;;;;;1714232;28;20218;-67
2023/01/19 09:25:01;;;;;;;7.00;6.30;;;18.20;95.30;;;;;;1714441;28;20286;-67
2023/01/19 09:25:56;;;;;;;7.35;6.68;;;17.90;94.20;;;;;;1713632;28;20205;-67
2023/01/19 09:26:48;;;;;;;7.28;6.68;;;17.30;93.60;;;;;;1713599;28;20206;-67
2023/01/19 09:27:38;;;;;;;7.38;6.47;;;16.60;93.60;;;;;;1713529;28;20206;-66
2023/01/19 09:28:30;;;;;;;6.80;6.20;;;15.60;93.80;;;;;;1715517;28;20692;-67
2023/01/19 09:29:21;;;;;;;6.32;5.80;;;14.80;95.00;;;;;;1721082;28;20201;-67
2023/01/19 09:30:14;;;;;;;7.30;6.60;;;14.00;96.30;;;;;;1720803;28;20207;-67
2023/01/19 09:31:06;;;;;;;7.13;6.43;;;13.20;97.20;;;;;;1721211;28;20455;-66
2023/01/19 09:31:57;;;;;;;6.85;6.15;;;12.90;97.20;;;;;;1721007;28;20205;-69
2023/01/19 09:32:48;;;;;;;6.78;6.07;;;12.20;97.20;;;;;;1721141;28;20575;-67
2023/01/19 09:33:40;;;;;;;7.07;6.37;;;11.70;97.20;;;;;;1720931;28;20543;-66
2023/01/19 09:34:31;;;;;;;7.97;7.15;;;11.70;97.20;;;;;;1721091;28;20231;-66
2023/01/19 09:35:23;;;;;;;9.07;7.87;;;12.20;97.20;;;;;;1721297;28;20202;-67
2023/01/19 09:36:14;;;;;;;8.00;7.20;;;12.90;97.20;;;;;;1720447;28;20456;-67
2023/01/19 09:37:06;;;;;;;8.30;7.10;;;14.00;97.20;;;;;;1720941;28;20264;-67
2023/01/19 09:37:59;;;;;;;7.90;7.10;;;14.90;97.20;;;;;;1720636;28;20515;-66
2023/01/19 09:38:50;;;;;;;7.85;7.07;;;15.20;97.20;;;;;;1720918;28;20206;-67
2023/01/19 09:39:41;;;;;;;6.72;5.75;;;15.10;96.90;;;;;;1720899;28;20225;-67
2023/01/19 09:40:35;;;;;;;7.60;6.43;;;14.70;96.40;;;;;;1720957;28;20221;-67
2023/01/19 09:41:27;;;;;;;7.47;5.90;;;14.10;96.60;;;;;;1721205;28;20588;-67
2023/01/19 09:42:24;;;;;;;8.95;7.18;;;13.60;97.20;;;;;;1721021;28;20201;-67
2023/01/19 09:43:25;;;;;;;8.20;5.85;;;13.00;97.20;;;;;;1721360;28;20194;-65
2023/01/19 09:44:20;;;;;;;7.72;6.10;;;12.40;97.20;;;;;;1721049;28;20197;-67
2023/01/19 09:45:18;;;;;;;7.50;5.68;;;11.80;97.20;;;;;;1720929;28;20208;-67
2023/01/19 09:46:12;;;;;;;9.18;7.75;;;11.30;97.20;;;;;;1719440;28;20209;-67
2023/01/19 09:47:12;;;;;;;6.80;6.20;;;10.80;97.20;;;;;;1720883;28;20209;-67
2023/01/19 09:48:10;;;;;;;7.00;6.28;;;10.40;97.20;;;;;;1720617;28;20206;-67
2023/01/19 09:49:05;;;;;;;7.55;6.85;;;9.90;97.20;;;;;;1721002;28;20197;-67
2023/01/19 09:50:03;;;;;;;6.78;6.13;;;9.60;97.20;;;;;;1720923;28;20683;-67
2023/01/19 09:50:56;;;;;;;7.97;7.07;;;9.30;97.20;;;;;;1720722;28;20225;-66
2023/01/19 09:51:50;;;;;;;6.90;6.20;;;9.00;97.20;;;;;;1720199;28;20208;-67
2023/01/19 09:52:55;;;;;;;6.75;6.10;;;8.90;97.20;;;;;;1721075;28;20201;-67
2023/01/19 09:53:59;;;;;;;6.32;5.72;;;10.30;97.20;;;;;;1720812;28;20248;-67
2023/01/19 09:54:54;;;;;;;6.30;5.70;;;12.30;97.20;;;;;;1721016;28;20205;-67
2023/01/19 09:55:45;;;;;;;6.68;5.63;;;14.20;97.20;;;;;;1720364;28;20209;-67
2023/01/19 09:56:37;;;;;;;5.40;4.90;;;16.00;97.20;;;;;;1720695;28;20205;-67
2023/01/19 09:57:31;;;;;;;6.40;5.47;;;17.50;97.20;;;;;;1720549;28;20229;-67
2023/01/19 09:58:22;;;;;;;5.68;5.18;;;18.60;94.60;;;;;;1714086;28;20198;-67
2023/01/19 09:59:21;;;;;;;6.32;5.70;;;18.80;91.20;;;;;;1719686;28;20208;-67
2023/01/19 10:00:14;;;;;;;5.00;4.60;;;18.50;89.90;;;;;;1720723;28;20300;-67
2023/01/19 10:01:15;;;;;;;5.78;4.90;;;17.90;89.60;;;;;;1721061;28;20201;-67
2023/01/19 10:02:22;;;;;;;6.05;4.80;;;17.20;90.10;;;;;;1720752;28;20217;-67
2023/01/19 10:03:16;;;;;;;5.43;4.93;;;16.40;91.20;;;;;;1720901;28;20185;-66
2023/01/19 10:04:29;;;;;;;5.82;4.95;;;15.50;91.90;;;;;;1720793;28;20231;-67
2023/01/19 10:05:28;;;;;;;7.30;5.30;;;14.40;93.50;;;;;;1720921;28;20281;-67
2023/01/19 10:06:20;;;;;;;5.47;4.97;;;13.60;94.70;;;;;;1720269;28;20200;-67
2023/01/19 10:07:22;;;;;;;5.10;4.60;;;12.90;96.30;;;;;;1720782;28;20292;-67
2023/01/19 10:08:23;;;;;;;5.75;5.25;;;12.20;97.20;;;;;;1720552;28;20198;-67
2023/01/19 10:09:21;;;;;;;5.38;4.85;;;11.60;97.20;;;;;;1720816;28;20197;-67
2023/01/19 10:10:19;;;;;;;5.90;4.70;;;11.10;97.20;;;;;;1720657;28;20205;-65
2023/01/19 10:11:21;;;;;;;5.70;5.13;;;10.60;97.20;;;;;;1720954;28;20209;-68
2023/01/19 10:12:22;;;;;;;5.97;5.38;;;10.10;97.20;;;;;;1714166;28;20567;-67
2023/01/19 10:13:28;;;;;;;6.40;5.90;;;9.70;97.20;;;;;;1714123;28;20206;-67
2023/01/19 10:14:27;;;;;;;7.35;6.20;;;9.30;97.20;;;;;;1719646;28;20201;-67
2023/01/19 10:15:28;;;;;;;6.95;6.25;;;8.90;97.20;;;;;;1720922;28;20201;-67
2023/01/19 10:16:34;;;;;;;7.32;6.65;;;8.60;97.20;;;;;;1720290;28;20585;-67
2023/01/19 10:17:37;;;;;;;5.60;4.97;;;8.20;97.20;;;;;;1720655;28;20213;-66
2023/01/19 10:18:44;;;;;;;5.70;5.20;;;7.70;97.20;;;;;;1720680;28;20193;-67
2023/01/19 10:19:41;;;;;;;6.25;5.65;;;7.30;97.20;;;;;;1720619;28;20225;-66
2023/01/19 10:20:38;;;;;;;6.30;5.70;;;7.00;97.20;;;;;;1720827;28;20252;-67
2023/01/19 10:21:33;;;;;;;6.45;5.50;;;6.70;97.20;;;;;;1720346;28;20722;-66
2023/01/19 10:22:27;;;;;;;5.78;5.20;;;6.40;97.20;;;;;;1720453;28;20185;-66
2023/01/19 10:23:43;;;;;;;6.95;6.18;;;6.30;97.20;;;;;;1720655;28;20201;-69
2023/01/19 10:24:40;;;;;;;8.35;5.95;;;6.10;97.20;;;;;;1718286;28;20209;-67
2023/01/19 10:25:33;;;;;;;9.05;6.07;;;5.90;97.20;;;;;;1720340;28;20235;-67
2023/01/19 10:26:27;;;;;;;8.30;5.10;;;5.70;97.20;;;;;;1720454;28;20555;-68
2023/01/19 10:27:21;;;;;;;6.20;5.60;;;5.50;97.20;;;;;;1720043;28;20213;-67
2023/01/19 10:28:14;;;;;;;6.28;5.68;;;5.40;97.20;;;;;;1720478;28;20205;-67
2023/01/19 10:29:07;;;;;;;8.30;6.55;;;5.30;97.20;;;;;;1720541;28;20590;-66
2023/01/19 10:30:00;;;;;;;7.30;5.53;;;5.30;97.20;;;;;;1720586;28;20228;-67
2023/01/19 10:30:54;;;;;;;6.18;5.65;;;5.30;97.20;;;;;;1720552;28;20240;-67
2023/01/19 10:31:46;;;;;;;6.40;5.80;;;5.30;97.20;;;;;;1720657;28;20580;-67
2023/01/19 10:32:38;;;;;;;5.47;4.97;;;5.30;97.20;;;;;;1720538;28;20216;-67
2023/01/19 10:33:30;;;;;;;5.30;4.90;;;5.30;97.20;;;;;;1720759;28;20213;-66